NY95 weather

Creekside Airport
Holcomb, New York, United States

Public forecast

Using degrees Fahrenheit for public forecast. Weather courtesy of forecast.io.

Closest aviation weather report (METAR) to Creekside Airport

Closest report is Greater Rochester International Airport, 17.6 nm (32.6 km) NW. Retrieved 2019/10/23 02:54 UTC (47 minutes ago):

KROC 230254Z 21004KT 10SM BKN047 BKN060 12/11 A2980 RMK AO2 RAB06E22 SLP094 P0000 60000 T01220106 50016

Closest aviation forecast (TAF) to Creekside Airport

Closest forecast is Greater Rochester International Airport, 17.6 nm (32.6 km) NW. Retrieved 2019-10-23 00:30 UTC (3 hours ago):

TAF KROC 222328Z 2300/2324 19007KT P6SM BKN060 BKN100 FM230200 22006KT P6SM -SHRA BKN050 FM230400 25006KT P6SM BKN080 FM231400 23011G18KT P6SM BKN040 FM231700 24016G25KT P6SM BKN045 FM231900 24018G28KT P6SM BKN070